Time;durP1;ratioP1;P1;durP2;ratioP2;P2;SDS_P1;SDS_P2;PMS_P1;PMS_P2;Temp;Humidity;BMP_temperature;BMP_pressure;BME280_temperature;BME280_humidity;BME280_pressure;Samples;Min_cycle;Max_cycle;Signal;HPM_P1;HPM_P2
2022/07/09 00:01:23;;;;;;;3.60;0.82;;;;;;;;;;5042608;28;20032;-81
2022/07/09 00:03:48;;;;;;;3.00;0.95;;;;;;;;;;5043473;28;20143;-80
2022/07/09 00:06:13;;;;;;;2.92;1.30;;;;;;;;;;5024618;28;20028;-79
2022/07/09 00:08:38;;;;;;;2.15;0.90;;;;;;;;;;5041287;28;20443;-80
2022/07/09 00:11:04;;;;;;;2.53;0.90;;;;;;;;;;5031285;28;20396;-80
2022/07/09 00:13:29;;;;;;;4.45;1.48;;;;;;;;;;5038796;28;20701;-80
2022/07/09 00:15:55;;;;;;;2.63;0.90;;;;;;;;;;5020525;28;20040;-80
2022/07/09 00:18:20;;;;;;;4.55;1.00;;;;;;;;;;5031528;28;20081;-80
2022/07/09 00:20:45;;;;;;;3.90;1.70;;;;;;;;;;5037561;28;20517;-80
2022/07/09 00:23:20;;;;;;;2.60;1.00;;;;;;;;;;5037024;28;20060;-80
2022/07/09 00:25:49;;;;;;;3.00;1.35;;;;;;;;;;5034185;28;20556;-80
2022/07/09 00:28:17;;;;;;;4.40;1.50;;;;;;;;;;5030550;28;20033;-79
2022/07/09 00:30:48;;;;;;;2.70;0.80;;;;;;;;;;5045975;28;20043;-79
2022/07/09 00:33:13;;;;;;;3.88;1.45;;;;;;;;;;5023669;28;20035;-80
2022/07/09 00:35:39;;;;;;;2.53;1.00;;;;;;;;;;5022530;28;20037;-79
2022/07/09 00:38:04;;;;;;;4.75;1.15;;;;;;;;;;5040879;28;20064;-80
2022/07/09 00:40:30;;;;;;;4.28;1.35;;;;;;;;;;5041668;28;20037;-80
2022/07/09 00:42:55;;;;;;;2.78;1.10;;;;;;;;;;5030585;28;20091;-80
2022/07/09 00:45:20;;;;;;;2.85;1.00;;;;;;;;;;5023929;28;20037;-81
2022/07/09 00:47:48;;;;;;;2.63;1.20;;;;;;;;;;5028093;28;20115;-80
2022/07/09 00:50:14;;;;;;;3.33;1.10;;;;;;;;;;5039078;28;20037;-80
2022/07/09 00:52:40;;;;;;;2.22;0.95;;;;;;;;;;5030347;28;20033;-80
2022/07/09 00:55:06;;;;;;;3.15;0.93;;;;;;;;;;5030821;28;20071;-80
2022/07/09 00:57:33;;;;;;;3.67;1.30;;;;;;;;;;5023508;28;20863;-80
2022/07/09 00:59:58;;;;;;;2.67;0.90;;;;;;;;;;5010890;28;20112;-81
2022/07/09 01:02:24;;;;;;;2.20;1.10;;;;;;;;;;5019813;28;20143;-79
2022/07/09 01:04:50;;;;;;;3.33;1.20;;;;;;;;;;5022662;28;20477;-80
2022/07/09 01:07:15;;;;;;;2.22;0.90;;;;;;;;;;5023509;28;20107;-79
2022/07/09 01:09:41;;;;;;;2.60;1.10;;;;;;;;;;5038593;28;20033;-80
2022/07/09 01:12:07;;;;;;;6.03;1.17;;;;;;;;;;5011062;28;20114;-80
2022/07/09 01:14:32;;;;;;;3.80;1.25;;;;;;;;;;5008216;28;20029;-79
2022/07/09 01:17:05;;;;;;;3.60;1.08;;;;;;;;;;5014349;28;20073;-80
2022/07/09 01:19:31;;;;;;;3.70;1.45;;;;;;;;;;5028926;28;20107;-81
2022/07/09 01:21:57;;;;;;;3.35;1.17;;;;;;;;;;5023501;28;20090;-80
2022/07/09 01:24:23;;;;;;;3.22;1.20;;;;;;;;;;5038591;28;20048;-79
2022/07/09 01:26:49;;;;;;;3.72;1.10;;;;;;;;;;5037201;28;20649;-80
2022/07/09 01:29:15;;;;;;;3.45;1.15;;;;;;;;;;5020424;28;20057;-80
2022/07/09 01:31:40;;;;;;;3.53;1.40;;;;;;;;;;5025819;28;20406;-80
2022/07/09 01:34:05;;;;;;;3.35;1.15;;;;;;;;;;5024641;28;20060;-81
2022/07/09 01:36:31;;;;;;;5.07;1.42;;;;;;;;;;5023795;28;20044;-80
2022/07/09 01:38:56;;;;;;;4.72;1.42;;;;;;;;;;5030687;28;20040;-79
2022/07/09 01:41:21;;;;;;;2.75;1.10;;;;;;;;;;5028897;28;20120;-80
2022/07/09 01:43:47;;;;;;;4.18;1.48;;;;;;;;;;5029028;28;20076;-80
2022/07/09 01:46:13;;;;;;;3.13;1.13;;;;;;;;;;5036126;28;20068;-80
2022/07/09 01:48:42;;;;;;;3.85;1.20;;;;;;;;;;5029789;28;20033;-79
2022/07/09 01:51:09;;;;;;;5.22;1.92;;;;;;;;;;5034262;28;20412;-80
2022/07/09 01:53:34;;;;;;;6.47;1.92;;;;;;;;;;5026543;28;20145;-80
2022/07/09 01:56:05;;;;;;;3.58;1.33;;;;;;;;;;5020924;28;20069;-80
2022/07/09 01:58:30;;;;;;;4.45;1.30;;;;;;;;;;5032080;28;20370;-80
2022/07/09 02:00:56;;;;;;;3.60;1.20;;;;;;;;;;5032132;28;20166;-79
2022/07/09 02:03:22;;;;;;;5.82;1.55;;;;;;;;;;5035526;28;20116;-80
2022/07/09 02:05:48;;;;;;;2.63;1.20;;;;;;;;;;5025968;28;20255;-80
2022/07/09 02:08:13;;;;;;;4.78;1.92;;;;;;;;;;5042377;28;20501;-80
2022/07/09 02:10:38;;;;;;;3.05;1.23;;;;;;;;;;5001827;28;20029;-80
2022/07/09 02:13:07;;;;;;;6.47;1.80;;;;;;;;;;5027990;28;20069;-80
2022/07/09 02:15:32;;;;;;;3.85;1.48;;;;;;;;;;5019425;28;20041;-79
2022/07/09 02:17:58;;;;;;;4.45;1.70;;;;;;;;;;5017295;28;20030;-80
2022/07/09 02:20:24;;;;;;;3.17;1.50;;;;;;;;;;5023513;28;20093;-80
2022/07/09 02:22:49;;;;;;;3.92;1.65;;;;;;;;;;5038539;28;20037;-80
2022/07/09 02:25:15;;;;;;;6.30;1.98;;;;;;;;;;5033110;28;20112;-80
2022/07/09 02:27:40;;;;;;;3.92;1.67;;;;;;;;;;5021770;28;20116;-79
2022/07/09 02:30:06;;;;;;;5.13;1.95;;;;;;;;;;5021902;28;20124;-79
2022/07/09 02:32:36;;;;;;;3.88;1.75;;;;;;;;;;5033441;28;20143;-80
2022/07/09 02:35:01;;;;;;;4.80;1.67;;;;;;;;;;5025756;28;20493;-79
2022/07/09 02:37:27;;;;;;;3.90;1.92;;;;;;;;;;5019911;28;20041;-80
2022/07/09 02:39:52;;;;;;;5.78;2.08;;;;;;;;;;5025446;28;20025;-79
2022/07/09 02:42:17;;;;;;;4.60;1.88;;;;;;;;;;5023917;28;20132;-79
2022/07/09 02:44:43;;;;;;;3.55;1.80;;;;;;;;;;5021037;28;20673;-80
2022/07/09 02:47:09;;;;;;;5.80;1.90;;;;;;;;;;5014172;28;20090;-79
2022/07/09 02:49:34;;;;;;;6.15;2.10;;;;;;;;;;5026710;28;20634;-79
2022/07/09 02:52:01;;;;;;;5.43;2.08;;;;;;;;;;5015507;28;20048;-80
2022/07/09 02:54:27;;;;;;;6.50;2.13;;;;;;;;;;5025444;28;20110;-80
2022/07/09 02:56:52;;;;;;;4.45;1.75;;;;;;;;;;5025379;28;20029;-80
2022/07/09 02:59:18;;;;;;;4.57;2.00;;;;;;;;;;5019144;28;20036;-80
2022/07/09 03:01:46;;;;;;;5.22;2.25;;;;;;;;;;5019991;28;20033;-80
2022/07/09 03:04:11;;;;;;;4.45;1.95;;;;;;;;;;5024933;28;20048;-80
2022/07/09 03:06:37;;;;;;;3.80;1.70;;;;;;;;;;5031677;28;20037;-79
2022/07/09 03:09:03;;;;;;;6.28;2.10;;;;;;;;;;5024591;28;20042;-80
2022/07/09 03:11:31;;;;;;;5.32;2.13;;;;;;;;;;5016923;28;20417;-80
2022/07/09 03:13:57;;;;;;;3.88;1.77;;;;;;;;;;5033561;28;20029;-80
2022/07/09 03:16:22;;;;;;;3.20;1.45;;;;;;;;;;5023884;28;20484;-80
2022/07/09 03:18:50;;;;;;;5.82;1.92;;;;;;;;;;5017245;28;20120;-80
2022/07/09 03:21:15;;;;;;;4.03;1.83;;;;;;;;;;5023490;28;20092;-79
2022/07/09 03:23:41;;;;;;;3.75;1.75;;;;;;;;;;5014313;28;20476;-80
2022/07/09 03:26:06;;;;;;;4.80;2.03;;;;;;;;;;5019708;28;20416;-79
2022/07/09 03:28:32;;;;;;;3.97;1.85;;;;;;;;;;5031901;28;20810;-79
2022/07/09 03:30:58;;;;;;;3.97;2.10;;;;;;;;;;5031217;28;20086;-80
2022/07/09 03:33:23;;;;;;;3.63;1.70;;;;;;;;;;5019171;28;20451;-80
2022/07/09 03:35:48;;;;;;;3.78;2.05;;;;;;;;;;5015579;28;20037;-79
2022/07/09 03:38:14;;;;;;;4.40;1.70;;;;;;;;;;5032304;28;20060;-81
2022/07/09 03:40:39;;;;;;;4.13;1.90;;;;;;;;;;5031281;28;20057;-79
2022/07/09 03:43:04;;;;;;;4.70;1.70;;;;;;;;;;5022580;28;20068;-80
2022/07/09 03:45:30;;;;;;;2.92;1.30;;;;;;;;;;5026766;28;20040;-79
2022/07/09 03:47:55;;;;;;;9.60;2.28;;;;;;;;;;5035355;28;20033;-79
2022/07/09 03:50:20;;;;;;;5.88;1.67;;;;;;;;;;5030375;28;20045;-80
2022/07/09 03:52:46;;;;;;;4.75;1.77;;;;;;;;;;5032064;28;20515;-81
2022/07/09 03:55:11;;;;;;;4.07;1.60;;;;;;;;;;5041786;28;20053;-80
2022/07/09 03:57:37;;;;;;;3.03;1.38;;;;;;;;;;5031908;28;20040;-80
2022/07/09 04:00:05;;;;;;;4.07;1.63;;;;;;;;;;5026007;28;20782;-79
2022/07/09 04:02:30;;;;;;;3.03;1.60;;;;;;;;;;5039867;28;20097;-80
2022/07/09 04:04:56;;;;;;;4.13;1.55;;;;;;;;;;5030736;28;20484;-80
2022/07/09 04:07:22;;;;;;;4.10;1.70;;;;;;;;;;5040208;28;20032;-80
2022/07/09 04:09:47;;;;;;;4.85;1.42;;;;;;;;;;5037617;28;20086;-79
2022/07/09 04:12:13;;;;;;;3.15;1.45;;;;;;;;;;5016730;28;20033;-80
2022/07/09 04:14:38;;;;;;;3.92;1.20;;;;;;;;;;5009755;28;20047;-80
2022/07/09 04:17:03;;;;;;;4.88;1.67;;;;;;;;;;5018064;28;20033;-80
2022/07/09 04:19:29;;;;;;;5.53;2.08;;;;;;;;;;5021996;28;20029;-80
2022/07/09 04:21:54;;;;;;;3.00;1.58;;;;;;;;;;5029342;28;20118;-80
2022/07/09 04:24:20;;;;;;;3.63;1.30;;;;;;;;;;5031143;28;20040;-80
2022/07/09 04:26:45;;;;;;;3.85;1.40;;;;;;;;;;5012812;28;20086;-81
2022/07/09 04:29:10;;;;;;;5.38;1.90;;;;;;;;;;5030725;28;20040;-79
2022/07/09 04:31:36;;;;;;;5.90;1.30;;;;;;;;;;5024777;28;20412;-80
2022/07/09 04:34:01;;;;;;;2.92;1.20;;;;;;;;;;5020972;28;20033;-80
2022/07/09 04:36:27;;;;;;;4.20;1.40;;;;;;;;;;5030636;28;20036;-79
2022/07/09 04:38:53;;;;;;;3.30;1.50;;;;;;;;;;5018514;28;20131;-80
2022/07/09 04:41:18;;;;;;;3.47;1.40;;;;;;;;;;5020137;28;20179;-79
2022/07/09 04:43:46;;;;;;;3.22;1.55;;;;;;;;;;5024392;28;20395;-79
2022/07/09 04:46:12;;;;;;;3.00;1.40;;;;;;;;;;5035214;28;20492;-80
2022/07/09 04:48:37;;;;;;;4.57;1.60;;;;;;;;;;5038768;28;20032;-79
2022/07/09 04:51:03;;;;;;;3.22;1.40;;;;;;;;;;5010198;28;20460;-79
2022/07/09 04:53:28;;;;;;;2.80;1.55;;;;;;;;;;5029068;28;20033;-79
2022/07/09 04:55:53;;;;;;;3.85;1.30;;;;;;;;;;5029849;28;20827;-80
2022/07/09 04:58:19;;;;;;;4.53;1.80;;;;;;;;;;5018571;28;20041;-79
2022/07/09 05:00:44;;;;;;;4.50;1.52;;;;;;;;;;5011274;28;20025;-80
2022/07/09 05:03:09;;;;;;;3.50;1.20;;;;;;;;;;5032250;28;20048;-80
2022/07/09 05:05:35;;;;;;;3.22;1.40;;;;;;;;;;5019793;28;20106;-80
2022/07/09 05:08:00;;;;;;;4.90;1.50;;;;;;;;;;5030287;28;20480;-80
2022/07/09 05:10:26;;;;;;;3.65;1.40;;;;;;;;;;5022902;28;20055;-80
2022/07/09 05:12:51;;;;;;;3.15;1.42;;;;;;;;;;5037246;28;20098;-80
2022/07/09 05:15:17;;;;;;;4.03;1.50;;;;;;;;;;5030213;28;20043;-80
2022/07/09 05:17:42;;;;;;;3.40;1.40;;;;;;;;;;5030386;28;20036;-80
2022/07/09 05:20:09;;;;;;;4.78;1.95;;;;;;;;;;5035511;28;20400;-80
2022/07/09 05:22:35;;;;;;;8.90;1.67;;;;;;;;;;5029913;28;20044;-80
2022/07/09 05:25:01;;;;;;;4.72;1.40;;;;;;;;;;5038826;28;20062;-80
2022/07/09 05:27:27;;;;;;;5.03;1.42;;;;;;;;;;5020793;28;20043;-80
2022/07/09 05:29:53;;;;;;;4.43;1.77;;;;;;;;;;5030252;28;20025;-79
2022/07/09 05:32:19;;;;;;;3.40;1.48;;;;;;;;;;5037796;28;20051;-79
2022/07/09 05:34:44;;;;;;;4.22;1.50;;;;;;;;;;5021380;28;20075;-81
2022/07/09 05:37:09;;;;;;;3.28;1.50;;;;;;;;;;5036848;28;20129;-80
2022/07/09 05:39:35;;;;;;;2.78;1.45;;;;;;;;;;5039798;28;20517;-80
2022/07/09 05:42:00;;;;;;;3.30;1.38;;;;;;;;;;5026627;28;20033;-79
2022/07/09 05:44:28;;;;;;;4.82;1.75;;;;;;;;;;5029770;28;20082;-80
2022/07/09 05:46:53;;;;;;;5.03;1.65;;;;;;;;;;5028989;28;20033;-80
2022/07/09 05:49:19;;;;;;;2.72;1.40;;;;;;;;;;5022314;28;20544;-79
2022/07/09 05:51:44;;;;;;;3.65;1.40;;;;;;;;;;5034084;28;20079;-79
2022/07/09 05:54:09;;;;;;;2.97;1.38;;;;;;;;;;5038070;28;20039;-79
2022/07/09 05:56:36;;;;;;;3.15;1.50;;;;;;;;;;5046133;28;20029;-80
2022/07/09 05:59:04;;;;;;;4.30;1.60;;;;;;;;;;5023730;28;20037;-79
2022/07/09 06:01:30;;;;;;;3.55;1.75;;;;;;;;;;5035695;28;20128;-80
2022/07/09 06:03:56;;;;;;;3.70;1.40;;;;;;;;;;5035242;28;20115;-81
2022/07/09 06:06:21;;;;;;;4.05;1.48;;;;;;;;;;5037150;28;20098;-79
2022/07/09 06:08:47;;;;;;;2.85;1.30;;;;;;;;;;5036606;28;20029;-80
2022/07/09 06:11:13;;;;;;;4.53;1.60;;;;;;;;;;5025018;28;20028;-80
2022/07/09 06:13:38;;;;;;;2.53;1.30;;;;;;;;;;5035430;28;20515;-80
2022/07/09 06:16:04;;;;;;;2.92;1.25;;;;;;;;;;5034895;28;20054;-79
2022/07/09 06:18:29;;;;;;;4.30;1.50;;;;;;;;;;5024331;28;20063;-80
2022/07/09 06:20:55;;;;;;;5.30;1.58;;;;;;;;;;5018968;28;20032;-80
2022/07/09 06:23:21;;;;;;;3.22;1.42;;;;;;;;;;5029644;28;20032;-79
2022/07/09 06:25:49;;;;;;;4.50;1.63;;;;;;;;;;5029084;28;20040;-80
2022/07/09 06:28:14;;;;;;;2.63;1.02;;;;;;;;;;5027495;28;20093;-80
2022/07/09 06:30:40;;;;;;;2.83;1.20;;;;;;;;;;5028677;28;20036;-80
2022/07/09 06:33:05;;;;;;;3.72;1.20;;;;;;;;;;5015287;28;20041;-80
2022/07/09 06:35:33;;;;;;;4.78;1.15;;;;;;;;;;5018159;28;20442;-79
2022/07/09 06:38:00;;;;;;;3.72;1.30;;;;;;;;;;5029102;28;20056;-80
2022/07/09 06:40:26;;;;;;;3.97;1.80;;;;;;;;;;5018787;28;20518;-80
2022/07/09 06:42:51;;;;;;;3.85;1.20;;;;;;;;;;5029792;28;20025;-80
2022/07/09 06:45:17;;;;;;;8.20;1.70;;;;;;;;;;5027505;28;20554;-80
2022/07/09 06:47:42;;;;;;;3.40;1.38;;;;;;;;;;5021159;28;20687;-80
2022/07/09 06:50:07;;;;;;;3.53;1.55;;;;;;;;;;5018444;28;20132;-80
2022/07/09 06:52:33;;;;;;;2.30;1.10;;;;;;;;;;5017677;28;20033;-80
2022/07/09 06:54:58;;;;;;;2.28;1.17;;;;;;;;;;5005149;28;20514;-81
2022/07/09 06:57:23;;;;;;;2.05;1.00;;;;;;;;;;5032240;28;20044;-80
2022/07/09 06:59:51;;;;;;;2.97;1.50;;;;;;;;;;5025091;28;20071;-80
2022/07/09 07:02:19;;;;;;;2.95;1.08;;;;;;;;;;5034697;28;20025;-80
2022/07/09 07:04:45;;;;;;;2.40;1.00;;;;;;;;;;5025155;28;20037;-80
2022/07/09 07:07:10;;;;;;;1.67;0.70;;;;;;;;;;5035710;28;20110;-80
2022/07/09 07:09:35;;;;;;;3.97;1.10;;;;;;;;;;5051961;28;20803;-81
2022/07/09 07:12:01;;;;;;;2.88;1.08;;;;;;;;;;5027982;28;20028;-80
2022/07/09 07:14:27;;;;;;;2.85;0.95;;;;;;;;;;5034276;28;20106;-80
2022/07/09 07:16:53;;;;;;;2.70;0.88;;;;;;;;;;5029185;28;20463;-80
2022/07/09 07:19:20;;;;;;;3.05;1.17;;;;;;;;;;5038797;28;20113;-80
2022/07/09 07:21:46;;;;;;;4.28;1.23;;;;;;;;;;5029429;28;20086;-80
2022/07/09 07:24:11;;;;;;;2.40;0.82;;;;;;;;;;5018735;28;20446;-80
2022/07/09 07:26:37;;;;;;;3.10;1.00;;;;;;;;;;5023772;28;20033;-80
2022/07/09 07:29:03;;;;;;;1.98;0.90;;;;;;;;;;5023373;28;20028;-79
2022/07/09 07:31:28;;;;;;;3.50;1.25;;;;;;;;;;5025288;28;20037;-80
2022/07/09 07:33:54;;;;;;;3.38;1.10;;;;;;;;;;5024186;28;20492;-80
2022/07/09 07:36:19;;;;;;;2.13;0.80;;;;;;;;;;5031972;28;20466;-81
2022/07/09 07:38:47;;;;;;;1.92;0.77;;;;;;;;;;5038824;28;20099;-80
2022/07/09 07:41:13;;;;;;;3.15;1.23;;;;;;;;;;5041420;28;20036;-80
2022/07/09 07:43:39;;;;;;;2.78;0.95;;;;;;;;;;5023599;28;20032;-80
2022/07/09 07:46:04;;;;;;;2.85;1.17;;;;;;;;;;5047727;28;20036;-81
2022/07/09 07:48:30;;;;;;;3.63;1.00;;;;;;;;;;5031535;28;20116;-80
2022/07/09 07:50:56;;;;;;;3.03;1.10;;;;;;;;;;5036998;28;20548;-80
2022/07/09 07:53:21;;;;;;;3.10;0.88;;;;;;;;;;5026953;28;20044;-81
2022/07/09 07:55:49;;;;;;;3.58;1.35;;;;;;;;;;5039394;28;20028;-80
2022/07/09 07:58:15;;;;;;;4.85;1.23;;;;;;;;;;5033552;28;20048;-80
2022/07/09 08:00:41;;;;;;;3.63;1.13;;;;;;;;;;5021079;28;20037;-80
2022/07/09 08:03:06;;;;;;;2.30;1.00;;;;;;;;;;5021160;28;20491;-80
2022/07/09 08:05:32;;;;;;;3.65;1.27;;;;;;;;;;5029859;28;20041;-80
2022/07/09 08:07:57;;;;;;;3.67;1.10;;;;;;;;;;5024207;28;20411;-80
2022/07/09 08:10:23;;;;;;;2.78;1.13;;;;;;;;;;5038530;28;20115;-80
2022/07/09 08:12:48;;;;;;;2.35;1.20;;;;;;;;;;5023386;28;20522;-81
2022/07/09 08:15:13;;;;;;;3.38;1.23;;;;;;;;;;5017409;28;20037;-80
2022/07/09 08:17:39;;;;;;;4.05;1.20;;;;;;;;;;5023919;28;20116;-81
2022/07/09 08:20:05;;;;;;;2.95;1.20;;;;;;;;;;5026404;28;20032;-81
2022/07/09 08:22:30;;;;;;;3.90;1.38;;;;;;;;;;5047113;28;20372;-81
2022/07/09 08:24:55;;;;;;;2.78;1.10;;;;;;;;;;5035006;28;20044;-81
2022/07/09 08:27:21;;;;;;;3.00;0.90;;;;;;;;;;5037651;28;20369;-80
2022/07/09 08:29:48;;;;;;;2.80;1.10;;;;;;;;;;5031381;28;20028;-81
2022/07/09 08:32:14;;;;;;;3.22;1.40;;;;;;;;;;5023800;28;20032;-81
2022/07/09 08:34:39;;;;;;;4.13;1.08;;;;;;;;;;5025602;28;20041;-80
2022/07/09 08:37:04;;;;;;;3.35;1.48;;;;;;;;;;5035599;28;20562;-81
2022/07/09 08:39:30;;;;;;;2.20;1.05;;;;;;;;;;5055941;28;20025;-81
2022/07/09 08:41:56;;;;;;;3.17;1.30;;;;;;;;;;5016432;28;20036;-81
2022/07/09 08:44:26;;;;;;;3.58;1.52;;;;;;;;;;5019427;28;20116;-82
2022/07/09 08:46:51;;;;;;;2.97;1.20;;;;;;;;;;5015888;28;20032;-81
2022/07/09 08:49:17;;;;;;;2.97;1.00;;;;;;;;;;5032210;28;20055;-80
2022/07/09 08:51:43;;;;;;;3.60;1.20;;;;;;;;;;5032880;28;20043;-80
2022/07/09 08:54:08;;;;;;;2.15;1.10;;;;;;;;;;5029020;28;20370;-80
2022/07/09 08:56:34;;;;;;;4.00;1.05;;;;;;;;;;5027396;28;20582;-80
2022/07/09 08:58:59;;;;;;;2.83;1.00;;;;;;;;;;5026280;28;20034;-80
2022/07/09 09:01:25;;;;;;;3.97;1.17;;;;;;;;;;5022621;28;20159;-80
2022/07/09 09:03:51;;;;;;;3.55;1.02;;;;;;;;;;5021589;28;20047;-80
2022/07/09 09:06:16;;;;;;;4.70;1.45;;;;;;;;;;5021759;28;20072;-80
2022/07/09 09:08:44;;;;;;;2.13;1.05;;;;;;;;;;5035436;28;20039;-81
2022/07/09 09:11:25;;;;;;;;;;;;;;;;;;5036271;28;20392;-81
2022/07/09 09:13:51;;;;;;;3.13;0.95;;;;;;;;;;5034395;28;19924;-80
2022/07/09 09:16:18;;;;;;;2.30;0.95;;;;;;;;;;5031637;28;20404;-81
2022/07/09 09:18:46;;;;;;;3.95;1.45;;;;;;;;;;5021045;28;20029;-82
2022/07/09 09:21:11;;;;;;;;;;;;;;;;;;5018592;28;20036;-81
2022/07/09 09:23:47;;;;;;;2.67;1.30;;;;;;;;;;5027247;28;19916;-80
2022/07/09 09:26:14;;;;;;;4.90;1.40;;;;;;;;;;5019724;28;20052;-81
2022/07/09 09:28:47;;;;;;;3.72;1.45;;;;;;;;;;5026479;28;20843;-81
2022/07/09 09:31:22;;;;;;;2.90;1.30;;;;;;;;;;5036637;28;20040;-81
2022/07/09 09:33:48;;;;;;;2.88;1.15;;;;;;;;;;5036341;28;20412;-80
2022/07/09 09:36:33;;;;;;;6.93;1.55;;;;;;;;;;5019940;28;20143;-80
2022/07/09 09:39:17;;;;;;;3.53;1.17;;;;;;;;;;5042389;28;20045;-80
2022/07/09 09:41:49;;;;;;;2.78;1.52;;;;;;;;;;5026393;28;20048;-81
2022/07/09 09:44:26;;;;;;;4.75;1.38;;;;;;;;;;5008048;28;20038;-80
2022/07/09 09:46:52;;;;;;;3.83;1.42;;;;;;;;;;5028896;28;20033;-81
2022/07/09 09:49:18;;;;;;;3.72;1.55;;;;;;;;;;5026529;28;20082;-80
2022/07/09 09:52:09;;;;;;;3.45;1.52;;;;;;;;;;5033119;28;20512;-82
2022/07/09 09:54:42;;;;;;;4.25;1.60;;;;;;;;;;5007671;28;20048;-80
2022/07/09 09:57:09;;;;;;;4.93;2.00;;;;;;;;;;5021433;28;20047;-80
2022/07/09 09:59:37;;;;;;;3.60;1.70;;;;;;;;;;5000785;28;20039;-79
2022/07/09 10:02:02;;;;;;;;;;;;;;;;;;5022440;28;20125;-80
2022/07/09 10:04:28;;;;;;;4.63;1.23;;;;;;;;;;5022297;28;20829;-81
2022/07/09 10:06:54;;;;;;;3.22;1.50;;;;;;;;;;5014704;28;20029;-81
2022/07/09 10:09:19;;;;;;;5.65;1.60;;;;;;;;;;5018148;28;20045;-80
2022/07/09 10:11:47;;;;;;;3.47;1.38;;;;;;;;;;5025876;28;20025;-81
2022/07/09 10:14:24;;;;;;;3.38;1.35;;;;;;;;;;5019466;28;20040;-81
2022/07/09 10:16:51;;;;;;;2.72;1.30;;;;;;;;;;5035171;28;20041;-81
2022/07/09 10:19:29;;;;;;;2.67;1.10;;;;;;;;;;5019086;28;20033;-80
2022/07/09 10:21:58;;;;;;;2.92;1.25;;;;;;;;;;5036299;28;20071;-81
2022/07/09 10:24:28;;;;;;;4.68;1.30;;;;;;;;;;5024256;28;20037;-80
2022/07/09 10:27:14;;;;;;;2.35;0.88;;;;;;;;;;5034583;28;20083;-81
2022/07/09 10:29:56;;;;;;;2.92;1.10;;;;;;;;;;5015938;28;20040;-81
2022/07/09 10:32:29;;;;;;;3.60;1.20;;;;;;;;;;5031070;28;20041;-80
2022/07/09 10:35:01;;;;;;;3.70;1.27;;;;;;;;;;5024261;28;20082;-81
2022/07/09 10:37:41;;;;;;;2.78;1.10;;;;;;;;;;5031111;28;20034;-80
2022/07/09 10:40:20;;;;;;;1.67;0.75;;;;;;;;;;5012803;28;20040;-80
2022/07/09 10:43:02;;;;;;;2.30;0.80;;;;;;;;;;5031633;28;20120;-81
2022/07/09 10:45:31;;;;;;;2.75;1.15;;;;;;;;;;5020362;28;20033;-81
2022/07/09 10:47:58;;;;;;;2.00;0.98;;;;;;;;;;5041917;28;20048;-80
2022/07/09 10:50:27;;;;;;;2.70;0.80;;;;;;;;;;5027050;28;20060;-80
2022/07/09 10:52:53;;;;;;;1.83;0.70;;;;;;;;;;5034100;28;20029;-82
2022/07/09 10:55:19;;;;;;;2.10;0.80;;;;;;;;;;5037378;28;20056;-82
2022/07/09 10:57:45;;;;;;;1.92;0.75;;;;;;;;;;5037269;28;20037;-80
2022/07/09 11:00:22;;;;;;;1.02;0.50;;;;;;;;;;5020526;28;20638;-81
2022/07/09 11:03:04;;;;;;;2.50;0.70;;;;;;;;;;5030240;28;20174;-81
2022/07/09 11:05:45;;;;;;;1.95;0.70;;;;;;;;;;5035454;28;20037;-80
2022/07/09 11:08:11;;;;;;;3.10;0.80;;;;;;;;;;5022688;28;20041;-83
2022/07/09 11:10:38;;;;;;;2.55;0.85;;;;;;;;;;5036407;28;20480;-81
2022/07/09 11:13:06;;;;;;;1.08;0.40;;;;;;;;;;5026243;28;20036;-82
2022/07/09 11:15:36;;;;;;;2.53;0.70;;;;;;;;;;5021616;28;20029;-80
2022/07/09 11:18:03;;;;;;;1.60;0.60;;;;;;;;;;5010086;28;20087;-82
2022/07/09 11:20:36;;;;;;;1.83;0.70;;;;;;;;;;5016637;28;20049;-81
2022/07/09 11:23:02;;;;;;;2.50;0.80;;;;;;;;;;5022039;28;20476;-82
2022/07/09 11:25:28;;;;;;;4.10;0.77;;;;;;;;;;5020143;28;20036;-82
2022/07/09 11:27:57;;;;;;;1.88;0.60;;;;;;;;;;5028271;28;20118;-81
2022/07/09 11:30:23;;;;;;;1.77;0.68;;;;;;;;;;5028531;28;20040;-81
2022/07/09 11:32:49;;;;;;;1.35;0.52;;;;;;;;;;5034960;28;20091;-81
2022/07/09 11:35:31;;;;;;;1.20;0.50;;;;;;;;;;5035721;28;20492;-81
2022/07/09 11:37:58;;;;;;;1.48;0.47;;;;;;;;;;5020874;28;20059;-80
2022/07/09 11:40:24;;;;;;;3.15;0.70;;;;;;;;;;5028197;28;20040;-82
2022/07/09 11:42:50;;;;;;;1.45;0.68;;;;;;;;;;5035653;28;20048;-81
2022/07/09 11:45:20;;;;;;;1.85;0.80;;;;;;;;;;5035939;28;20392;-82
2022/07/09 11:47:46;;;;;;;1.80;0.60;;;;;;;;;;5034125;28;20035;-81
2022/07/09 11:50:14;;;;;;;1.50;0.65;;;;;;;;;;5013130;28;20034;-82
2022/07/09 11:52:43;;;;;;;;;;;;;;;;;;5023372;28;20040;-81
2022/07/09 11:55:09;;;;;;;1.80;0.57;;;;;;;;;;5027082;28;19920;-82
2022/07/09 11:57:36;;;;;;;1.52;0.63;;;;;;;;;;5027639;28;20102;-80
2022/07/09 12:00:04;;;;;;;1.90;0.50;;;;;;;;;;5019315;28;20053;-81
2022/07/09 12:02:31;;;;;;;1.33;0.52;;;;;;;;;;5022682;28;20041;-81
2022/07/09 12:04:57;;;;;;;1.75;0.55;;;;;;;;;;5023929;28;20029;-80
2022/07/09 12:07:22;;;;;;;1.33;0.50;;;;;;;;;;5028862;28;20032;-82
2022/07/09 12:10:00;;;;;;;1.35;0.57;;;;;;;;;;5031735;28;20037;-82
2022/07/09 12:12:25;;;;;;;;;;;;;;;;;;5022160;28;20037;-81
2022/07/09 12:14:50;;;;;;;1.52;0.50;;;;;;;;;;5032754;28;19916;-81
2022/07/09 12:17:29;;;;;;;1.30;0.50;;;;;;;;;;5023705;28;20033;-81
2022/07/09 12:19:56;;;;;;;1.10;0.50;;;;;;;;;;5031703;28;20558;-81
2022/07/09 12:22:23;;;;;;;0.63;0.40;;;;;;;;;;5037687;28;20376;-82
2022/07/09 12:24:49;;;;;;;2.38;0.80;;;;;;;;;;5037084;28;20043;-81
2022/07/09 12:27:15;;;;;;;2.55;0.60;;;;;;;;;;5030816;28;20119;-81
2022/07/09 12:29:41;;;;;;;1.42;0.50;;;;;;;;;;5026390;28;20116;-81
2022/07/09 12:32:06;;;;;;;1.10;0.47;;;;;;;;;;5031331;28;20052;-81
2022/07/09 12:34:31;;;;;;;2.60;0.70;;;;;;;;;;5024408;28;20028;-82
2022/07/09 12:36:57;;;;;;;1.98;0.63;;;;;;;;;;5041112;28;20404;-81
2022/07/09 12:39:22;;;;;;;1.25;0.50;;;;;;;;;;5032116;28;20037;-82
2022/07/09 12:41:48;;;;;;;1.13;0.50;;;;;;;;;;5030506;28;20040;-81
2022/07/09 12:44:13;;;;;;;2.17;0.70;;;;;;;;;;5030885;28;20040;-81
2022/07/09 12:46:41;;;;;;;2.20;0.68;;;;;;;;;;5029625;28;20037;-81
2022/07/09 12:49:07;;;;;;;1.98;0.80;;;;;;;;;;5024634;28;20033;-81
2022/07/09 12:51:33;;;;;;;1.35;0.60;;;;;;;;;;5016677;28;20102;-81
2022/07/09 12:53:58;;;;;;;1.52;0.73;;;;;;;;;;5025234;28;20081;-80
2022/07/09 12:56:23;;;;;;;1.30;0.50;;;;;;;;;;5036164;28;20047;-81
2022/07/09 12:58:49;;;;;;;1.23;0.63;;;;;;;;;;5027750;28;20044;-81
2022/07/09 13:01:14;;;;;;;2.78;0.73;;;;;;;;;;5026491;28;20086;-81
2022/07/09 13:03:39;;;;;;;2.22;0.82;;;;;;;;;;5037145;28;20040;-81
2022/07/09 13:06:30;;;;;;;2.30;0.75;;;;;;;;;;5035222;28;20033;-81
2022/07/09 13:08:50;;;;;;;2.20;1.00;;;;;;;;;;5013560;28;20120;-82
2022/07/09 13:11:15;;;;;;;2.58;0.80;;;;;;;;;;5033155;28;20152;-81
2022/07/09 13:13:41;;;;;;;2.75;0.85;;;;;;;;;;5016648;28;20366;-81
2022/07/09 13:16:06;;;;;;;1.42;0.60;;;;;;;;;;5019356;28;20061;-81
2022/07/09 13:18:31;;;;;;;2.30;0.93;;;;;;;;;;5021042;28;20045;-83
2022/07/09 13:20:57;;;;;;;2.08;0.93;;;;;;;;;;5016614;28;20033;-82
2022/07/09 13:23:22;;;;;;;2.28;1.00;;;;;;;;;;5016054;28;20030;-82
2022/07/09 13:25:47;;;;;;;1.85;0.80;;;;;;;;;;5010944;28;20108;-82
2022/07/09 13:28:13;;;;;;;3.92;1.30;;;;;;;;;;5042065;28;20121;-82
2022/07/09 13:30:38;;;;;;;2.38;1.20;;;;;;;;;;5026922;28;20025;-82
2022/07/09 13:33:03;;;;;;;3.55;1.17;;;;;;;;;;5019848;28;20037;-82
2022/07/09 13:35:29;;;;;;;2.70;1.10;;;;;;;;;;5033285;28;20064;-82
2022/07/09 13:37:54;;;;;;;2.38;0.93;;;;;;;;;;5027286;28;20499;-82
2022/07/09 13:40:20;;;;;;;1.80;0.90;;;;;;;;;;5026319;28;20037;-82
2022/07/09 13:42:45;;;;;;;2.15;1.00;;;;;;;;;;5019447;28;20040;-82
2022/07/09 13:45:10;;;;;;;2.35;1.10;;;;;;;;;;5020144;28;20059;-82
2022/07/09 13:47:36;;;;;;;2.67;1.10;;;;;;;;;;5004441;28;20037;-82
2022/07/09 13:50:01;;;;;;;1.90;1.00;;;;;;;;;;5012537;28;20359;-82
2022/07/09 13:52:27;;;;;;;1.42;0.63;;;;;;;;;;5024753;28;20459;-82
2022/07/09 13:54:52;;;;;;;1.95;0.80;;;;;;;;;;5026119;28;20033;-82
2022/07/09 13:57:18;;;;;;;3.42;0.85;;;;;;;;;;5020125;28;20052;-82
2022/07/09 13:59:43;;;;;;;1.95;0.95;;;;;;;;;;5030873;28;20060;-82
2022/07/09 14:02:08;;;;;;;1.95;0.95;;;;;;;;;;5015174;28;20091;-82
2022/07/09 14:04:34;;;;;;;2.35;1.02;;;;;;;;;;5019869;28;20044;-82
2022/07/09 14:06:59;;;;;;;2.63;0.90;;;;;;;;;;5033034;28;20117;-81
2022/07/09 14:09:24;;;;;;;3.25;1.10;;;;;;;;;;5025527;28;20139;-82
2022/07/09 14:11:50;;;;;;;2.22;0.98;;;;;;;;;;5032822;28;20045;-82
2022/07/09 14:14:15;;;;;;;2.85;0.82;;;;;;;;;;5025883;28;20037;-81
2022/07/09 14:16:40;;;;;;;2.05;0.90;;;;;;;;;;5025210;28;20120;-82
2022/07/09 14:19:06;;;;;;;1.95;0.98;;;;;;;;;;5035762;28;20558;-82
2022/07/09 14:21:31;;;;;;;1.48;0.80;;;;;;;;;;5017673;28;20535;-81
2022/07/09 14:23:56;;;;;;;1.70;0.70;;;;;;;;;;5026603;28;20075;-81
2022/07/09 14:26:23;;;;;;;1.52;0.70;;;;;;;;;;5018533;28;20084;-81
2022/07/09 14:28:51;;;;;;;1.40;0.50;;;;;;;;;;5015617;28;20390;-83
2022/07/09 14:31:17;;;;;;;1.10;0.50;;;;;;;;;;5025770;28;20033;-80
2022/07/09 14:33:42;;;;;;;1.25;0.40;;;;;;;;;;5026618;28;20037;-82
2022/07/09 14:36:07;;;;;;;1.35;0.50;;;;;;;;;;5029119;28;20044;-82
2022/07/09 14:38:33;;;;;;;1.38;0.60;;;;;;;;;;5035027;28;20067;-80
2022/07/09 14:40:58;;;;;;;1.63;0.57;;;;;;;;;;5024333;28;20334;-81
2022/07/09 14:43:23;;;;;;;1.58;0.60;;;;;;;;;;5022841;28;20488;-81